createdAt,value
2022-10-22T00:01:35.610Z,18.30
2022-10-22T00:04:03.463Z,18.20
2022-10-22T00:06:31.344Z,17.70
2022-10-22T00:08:59.240Z,17.10
2022-10-22T00:11:27.152Z,17.00
2022-10-22T00:13:55.038Z,17.50
2022-10-22T00:16:24.284Z,17.90
2022-10-22T00:18:52.352Z,18.20
2022-10-22T00:21:20.229Z,18.10
2022-10-22T00:23:48.115Z,17.80
2022-10-22T00:26:16.016Z,18.10
2022-10-22T00:28:43.882Z,18.30
2022-10-22T00:31:12.021Z,18.40
2022-10-22T00:33:41.281Z,18.70
2022-10-22T00:36:09.740Z,18.90
2022-10-22T00:38:37.622Z,18.70
2022-10-22T00:41:05.588Z,18.70
2022-10-22T00:43:33.467Z,18.70
2022-10-22T00:46:01.348Z,18.80
2022-10-22T00:48:29.308Z,18.70
2022-10-22T00:50:59.010Z,18.40
2022-10-22T00:53:27.685Z,18.10
2022-10-22T00:55:55.623Z,18.50
2022-10-22T00:58:24.241Z,18.70
2022-10-22T01:00:52.204Z,18.70
2022-10-22T01:03:20.142Z,17.90
2022-10-22T01:05:48.365Z,18.40
2022-10-22T01:08:19.514Z,18.30
2022-10-22T01:10:50.424Z,18.10
2022-10-22T01:13:19.267Z,18.30
2022-10-22T01:15:49.593Z,18.10
2022-10-22T01:18:18.890Z,17.40
2022-10-22T01:20:49.128Z,17.60
2022-10-22T01:23:22.288Z,17.40
2022-10-22T01:25:51.828Z,17.70
2022-10-22T01:28:21.525Z,17.80
2022-10-22T01:30:50.776Z,17.60
2022-10-22T01:33:19.074Z,17.70
2022-10-22T01:35:47.066Z,17.80
2022-10-22T01:38:15.553Z,17.80
2022-10-22T01:40:43.436Z,18.00
2022-10-22T01:43:11.560Z,18.00
2022-10-22T01:45:40.986Z,18.00
2022-10-22T01:48:13.325Z,18.10
2022-10-22T01:50:47.822Z,18.20
2022-10-22T01:53:19.065Z,18.50
2022-10-22T01:55:50.952Z,18.40
2022-10-22T01:58:21.200Z,18.60
2022-10-22T02:00:51.220Z,18.40
2022-10-22T02:03:23.763Z,18.00
2022-10-22T02:05:53.035Z,17.90
2022-10-22T02:08:21.579Z,17.70
2022-10-22T02:10:49.484Z,17.80
2022-10-22T02:13:17.737Z,17.70
2022-10-22T02:15:46.283Z,17.70
2022-10-22T02:18:14.303Z,17.70
2022-10-22T02:20:43.848Z,17.50
2022-10-22T02:23:11.762Z,17.70
2022-10-22T02:25:40.737Z,17.70
2022-10-22T02:28:10.508Z,17.70
2022-10-22T02:30:38.461Z,18.00
2022-10-22T02:33:07.924Z,17.70
2022-10-22T02:35:35.869Z,17.80
2022-10-22T02:38:05.134Z,17.80
2022-10-22T02:40:33.012Z,18.00
2022-10-22T02:43:00.999Z,18.10
2022-10-22T02:45:28.886Z,17.80
2022-10-22T02:47:56.759Z,17.50
2022-10-22T02:50:24.665Z,17.70
2022-10-22T02:52:52.490Z,18.10
2022-10-22T02:55:21.755Z,17.80
2022-10-22T02:57:49.605Z,17.70
2022-10-22T03:00:17.642Z,17.70
2022-10-22T03:02:45.519Z,17.30
2022-10-22T03:05:13.412Z,17.40
2022-10-22T03:07:41.544Z,17.50
2022-10-22T03:10:10.050Z,17.70
2022-10-22T03:12:39.942Z,17.70
2022-10-22T03:15:08.105Z,17.30
2022-10-22T03:17:36.413Z,17.50
2022-10-22T03:20:04.367Z,17.60
2022-10-22T03:22:32.519Z,17.50
2022-10-22T03:25:01.360Z,17.60
2022-10-22T03:27:29.243Z,17.80
2022-10-22T03:29:58.474Z,18.00
2022-10-22T03:32:26.409Z,17.80
2022-10-22T03:34:54.361Z,18.10
2022-10-22T03:37:22.350Z,18.20
2022-10-22T03:39:50.179Z,17.80
2022-10-22T03:42:18.063Z,18.10
2022-10-22T03:44:45.943Z,18.20
2022-10-22T03:47:15.181Z,18.30
2022-10-22T03:49:43.033Z,18.20
2022-10-22T03:52:11.422Z,18.30
2022-10-22T03:57:07.094Z,18.30
2022-10-22T03:59:35.677Z,17.90
2022-10-22T04:02:03.577Z,17.80
2022-10-22T04:04:32.837Z,18.10
2022-10-22T04:07:00.716Z,18.00
2022-10-22T04:09:28.580Z,17.80
2022-10-22T04:11:56.460Z,17.70
2022-10-22T04:14:24.388Z,17.50
2022-10-22T04:16:52.277Z,17.50
2022-10-22T04:19:20.149Z,17.70
2022-10-22T04:21:49.389Z,17.80
2022-10-22T04:24:17.250Z,17.50
2022-10-22T04:26:45.145Z,17.70
2022-10-22T04:29:15.982Z,17.70
2022-10-22T04:31:44.422Z,17.40
2022-10-22T04:34:12.296Z,17.50
2022-10-22T04:36:40.193Z,17.30
2022-10-22T04:39:09.431Z,17.50
2022-10-22T04:41:38.023Z,17.30
2022-10-22T04:44:06.297Z,17.30
2022-10-22T04:46:34.875Z,17.30
2022-10-22T04:49:03.872Z,17.30
2022-10-22T04:51:31.899Z,17.20
2022-10-22T04:53:59.753Z,17.30
2022-10-22T04:56:29.397Z,17.20
2022-10-22T04:58:57.683Z,17.10
2022-10-22T05:01:26.034Z,17.00
2022-10-22T05:03:54.419Z,16.80
2022-10-22T05:06:22.936Z,16.60
2022-10-22T05:08:53.328Z,16.30
2022-10-22T05:11:21.963Z,16.30
2022-10-22T05:13:51.196Z,16.60
2022-10-22T05:16:19.117Z,16.90
2022-10-22T05:18:46.977Z,17.00
2022-10-22T05:21:16.096Z,17.00
2022-10-22T05:23:44.025Z,16.80
2022-10-22T05:26:12.287Z,16.70
2022-10-22T05:28:40.192Z,16.90
2022-10-22T05:31:09.608Z,16.20
2022-10-22T05:33:37.473Z,16.20
2022-10-22T05:36:05.791Z,16.30
2022-10-22T05:38:33.680Z,16.10
2022-10-22T05:41:01.847Z,16.50
2022-10-22T05:43:29.886Z,16.40
2022-10-22T05:45:57.756Z,16.20
2022-10-22T05:48:27.050Z,16.00
2022-10-22T05:50:54.930Z,15.80
2022-10-22T05:53:22.797Z,16.00
2022-10-22T05:55:50.649Z,16.10
2022-10-22T05:58:18.512Z,16.20
2022-10-22T06:00:46.389Z,16.00
2022-10-22T06:03:14.243Z,16.00
2022-10-22T06:05:43.603Z,16.30
2022-10-22T06:08:14.499Z,16.50
2022-10-22T06:10:46.037Z,16.30
2022-10-22T06:13:13.891Z,16.00
2022-10-22T06:15:41.751Z,16.40
2022-10-22T06:18:09.603Z,16.00
2022-10-22T06:20:37.484Z,16.20
2022-10-22T06:23:06.932Z,16.10
2022-10-22T06:25:34.803Z,16.30
2022-10-22T06:28:02.649Z,16.20
2022-10-22T06:30:30.556Z,15.70
2022-10-22T06:32:58.518Z,15.90
2022-10-22T06:35:26.504Z,16.10
2022-10-22T06:37:54.928Z,16.40
2022-10-22T06:40:24.714Z,16.40
2022-10-22T06:42:52.577Z,15.90
2022-10-22T06:45:20.448Z,15.70
2022-10-22T06:47:49.024Z,16.20
2022-10-22T06:50:16.978Z,16.40
2022-10-22T06:52:44.866Z,16.40
2022-10-22T06:55:12.760Z,16.70
2022-10-22T06:57:42.410Z,16.60
2022-10-22T07:00:11.114Z,16.80
2022-10-22T07:02:39.462Z,16.80
2022-10-22T07:05:08.115Z,16.90
2022-10-22T07:07:35.997Z,16.90
2022-10-22T07:10:03.849Z,17.10
2022-10-22T07:12:31.716Z,17.00
2022-10-22T07:15:00.968Z,17.00
2022-10-22T07:17:28.863Z,17.00
2022-10-22T07:19:56.740Z,17.10
2022-10-22T07:22:24.630Z,17.30
2022-10-22T07:24:52.503Z,17.30
2022-10-22T07:27:20.452Z,17.30
2022-10-22T07:29:48.480Z,18.30
2022-10-22T07:32:19.651Z,19.10
2022-10-22T07:34:50.837Z,18.60
2022-10-22T07:37:21.902Z,18.70
2022-10-22T07:39:49.775Z,18.60
2022-10-22T07:42:17.679Z,18.30
2022-10-22T07:44:45.559Z,18.50
2022-10-22T07:47:13.676Z,18.80
2022-10-22T07:49:42.899Z,18.50
2022-10-22T07:52:10.756Z,18.70
2022-10-22T07:54:38.600Z,19.10
2022-10-22T07:57:06.477Z,19.00
2022-10-22T07:59:34.370Z,18.80
2022-10-22T08:02:02.293Z,18.60
2022-10-22T08:04:30.190Z,18.80
2022-10-22T08:06:59.491Z,18.70
2022-10-22T08:09:27.360Z,18.70
2022-10-22T08:11:55.553Z,18.70
2022-10-22T08:14:23.408Z,18.10
2022-10-22T08:16:51.275Z,18.50
2022-10-22T08:19:21.262Z,18.70
2022-10-22T08:21:49.176Z,18.60
2022-10-22T08:24:18.435Z,18.80
2022-10-22T08:26:46.343Z,19.70
2022-10-22T08:29:14.270Z,22.20
2022-10-22T08:31:42.293Z,24.30
2022-10-22T08:34:10.293Z,25.70
2022-10-22T08:36:38.699Z,26.20
2022-10-22T08:39:06.722Z,25.20
2022-10-22T08:41:36.589Z,25.40
2022-10-22T08:44:08.271Z,25.90
2022-10-22T08:46:42.039Z,24.70
2022-10-22T08:49:10.661Z,23.20
2022-10-22T08:51:40.529Z,24.30
2022-10-22T08:54:16.562Z,24.20
2022-10-22T08:56:46.464Z,24.20
2022-10-22T08:59:16.022Z,23.80
2022-10-22T09:01:44.548Z,23.60
2022-10-22T09:04:13.919Z,24.00
2022-10-22T09:06:44.326Z,23.10
2022-10-22T09:09:13.014Z,22.70
2022-10-22T09:11:41.475Z,22.40
2022-10-22T09:14:12.850Z,22.90
2022-10-22T09:16:44.458Z,22.10
2022-10-22T09:19:15.611Z,22.40
2022-10-22T09:21:46.673Z,22.80
2022-10-22T09:24:14.921Z,23.70
2022-10-22T09:26:42.917Z,23.20
2022-10-22T09:29:16.280Z,22.70
2022-10-22T09:31:44.827Z,22.60
2022-10-22T09:34:15.088Z,22.80
2022-10-22T09:36:43.154Z,22.80
2022-10-22T09:39:23.023Z,23.10
2022-10-22T09:41:51.105Z,23.50
2022-10-22T09:44:20.935Z,23.40
2022-10-22T09:46:48.953Z,24.20
2022-10-22T09:49:17.938Z,24.40
2022-10-22T09:51:53.458Z,24.80
2022-10-22T09:54:21.794Z,25.00
2022-10-22T09:56:53.432Z,24.50
2022-10-22T09:59:25.950Z,25.20
2022-10-22T10:02:04.973Z,25.20
2022-10-22T10:04:41.991Z,24.50
2022-10-22T10:07:16.560Z,24.00
2022-10-22T10:09:44.423Z,24.60
2022-10-22T10:12:16.387Z,24.60
2022-10-22T10:14:47.390Z,24.80
2022-10-22T10:17:17.168Z,24.50
2022-10-22T10:19:48.352Z,25.20
2022-10-22T10:22:20.159Z,24.80
2022-10-22T10:24:51.869Z,24.30
2022-10-22T10:27:21.937Z,24.10
2022-10-22T10:29:52.635Z,24.80
2022-10-22T10:32:24.577Z,24.50
2022-10-22T10:34:54.048Z,24.40
2022-10-22T10:37:22.606Z,24.70
2022-10-22T10:39:57.543Z,24.70
2022-10-22T10:42:27.446Z,25.10
2022-10-22T10:45:00.309Z,25.00
2022-10-22T10:47:35.072Z,24.90
2022-10-22T10:50:06.410Z,24.90
2022-10-22T10:52:35.408Z,23.60
2022-10-22T10:55:05.674Z,24.80
2022-10-22T10:57:36.169Z,25.20
2022-10-22T11:00:06.962Z,24.10
2022-10-22T11:02:48.685Z,24.40
2022-10-22T11:05:21.506Z,25.20
2022-10-22T11:07:54.952Z,25.60
2022-10-22T11:10:25.840Z,25.20
2022-10-22T11:12:54.173Z,25.20
2022-10-22T11:15:26.201Z,25.10
2022-10-22T11:17:54.337Z,24.90
2022-10-22T11:20:23.356Z,24.90
2022-10-22T11:23:17.433Z,25.30
2022-10-22T11:25:40.435Z,25.30
2022-10-22T11:28:11.393Z,25.30
2022-10-22T11:30:40.834Z,26.00
2022-10-22T11:33:11.111Z,25.60
2022-10-22T11:35:40.734Z,25.20
2022-10-22T11:38:09.766Z,25.10
2022-10-22T11:40:38.197Z,25.30
2022-10-22T11:43:06.462Z,25.50
2022-10-22T11:45:35.600Z,25.30
2022-10-22T11:48:08.700Z,25.30
2022-10-22T11:50:47.265Z,25.00
2022-10-22T11:53:19.168Z,24.50
2022-10-22T11:55:48.378Z,24.70
2022-10-22T11:58:35.876Z,25.00
2022-10-22T12:01:19.796Z,24.60
2022-10-22T12:03:50.824Z,24.20
2022-10-22T12:06:25.037Z,24.50
2022-10-22T12:08:54.810Z,24.90
2022-10-22T12:11:22.918Z,25.50
2022-10-22T12:14:03.583Z,24.90
2022-10-22T12:16:56.046Z,25.20
2022-10-22T12:19:30.398Z,25.60
2022-10-22T12:21:59.100Z,26.00
2022-10-22T12:24:26.988Z,25.30
2022-10-22T12:26:54.857Z,25.30
2022-10-22T12:29:24.013Z,25.30
2022-10-22T12:31:51.909Z,25.70
2022-10-22T12:34:20.092Z,25.90
2022-10-22T12:36:49.569Z,25.10
2022-10-22T12:39:17.934Z,24.80
2022-10-22T12:41:45.831Z,25.10
2022-10-22T12:44:14.660Z,25.20
2022-10-22T12:46:42.752Z,25.70
2022-10-22T12:49:14.763Z,25.80
2022-10-22T12:51:42.628Z,25.50
2022-10-22T12:54:16.219Z,25.50
2022-10-22T12:56:46.875Z,25.30
2022-10-22T12:59:16.410Z,25.20
2022-10-22T13:01:44.610Z,25.00
2022-10-22T13:04:22.679Z,25.40
2022-10-22T13:06:50.768Z,24.80
2022-10-22T13:09:26.817Z,25.20
2022-10-22T13:11:58.270Z,25.40
2022-10-22T13:14:29.398Z,25.80
2022-10-22T13:17:10.517Z,26.00
2022-10-22T13:19:39.250Z,26.30
2022-10-22T13:22:22.657Z,25.90
2022-10-22T13:24:52.038Z,25.90
2022-10-22T13:27:19.934Z,25.60
2022-10-22T13:29:47.804Z,25.00
2022-10-22T13:32:22.722Z,25.30
2022-10-22T13:34:50.572Z,25.30
2022-10-22T13:37:18.454Z,25.50
2022-10-22T13:39:46.355Z,25.80
2022-10-22T13:42:15.668Z,26.20
2022-10-22T13:44:43.537Z,25.70
2022-10-22T13:47:12.126Z,25.40
2022-10-22T13:49:43.356Z,25.80
2022-10-22T13:52:11.640Z,25.40
2022-10-22T13:54:39.712Z,26.20
2022-10-22T13:57:09.343Z,26.30
2022-10-22T13:59:38.564Z,25.60
2022-10-22T14:02:09.530Z,25.80
2022-10-22T14:04:37.442Z,25.30
2022-10-22T14:07:05.386Z,25.10
2022-10-22T14:09:33.336Z,25.10
2022-10-22T14:12:01.376Z,25.20
2022-10-22T14:14:29.250Z,24.80
2022-10-22T14:16:58.576Z,24.60
2022-10-22T14:19:26.442Z,24.40
2022-10-22T14:21:54.328Z,24.80
2022-10-22T14:24:22.172Z,25.20
2022-10-22T14:26:50.055Z,25.00
2022-10-22T14:29:17.905Z,24.90
2022-10-22T14:31:45.816Z,24.90
2022-10-22T14:34:15.472Z,24.30
2022-10-22T14:36:44.839Z,24.50
2022-10-22T14:39:12.798Z,24.60
2022-10-22T14:41:40.986Z,24.30
2022-10-22T14:44:12.639Z,24.50
2022-10-22T14:46:42.743Z,24.70
2022-10-22T14:49:10.735Z,25.00
2022-10-22T14:51:40.026Z,24.80
2022-10-22T14:54:07.895Z,25.10
2022-10-22T14:59:10.265Z,25.00
2022-10-22T15:01:38.902Z,25.00
2022-10-22T15:04:06.772Z,24.70
2022-10-22T15:06:34.672Z,25.10
2022-10-22T15:09:04.046Z,25.20
2022-10-22T15:11:31.971Z,24.70
2022-10-22T15:14:00.001Z,24.90
2022-10-22T15:16:27.900Z,24.50
2022-10-22T15:18:55.748Z,24.50
2022-10-22T15:21:23.673Z,24.60
2022-10-22T15:23:51.590Z,25.00
2022-10-22T15:26:20.983Z,24.80
2022-10-22T15:28:48.894Z,24.60
2022-10-22T15:31:16.890Z,24.50
2022-10-22T15:33:44.793Z,24.00
2022-10-22T15:36:13.314Z,23.90
2022-10-22T15:38:41.153Z,24.30
2022-10-22T15:41:10.173Z,24.20
2022-10-22T15:43:39.435Z,23.90
2022-10-22T15:46:09.962Z,23.70
2022-10-22T15:48:38.226Z,23.50
2022-10-22T15:51:08.764Z,23.40
2022-10-22T15:53:36.631Z,23.20
2022-10-22T15:56:04.608Z,22.90
2022-10-22T15:58:32.487Z,22.70
2022-10-22T16:01:08.331Z,22.30
2022-10-22T16:03:36.284Z,22.20
2022-10-22T16:06:04.233Z,21.90
2022-10-22T16:08:32.630Z,21.60
2022-10-22T16:11:00.541Z,21.70
2022-10-22T16:13:28.409Z,21.80
2022-10-22T16:15:56.357Z,21.70
2022-10-22T16:18:25.622Z,21.50
2022-10-22T16:20:53.494Z,21.20
2022-10-22T16:23:21.377Z,21.20
2022-10-22T16:25:49.308Z,20.80
2022-10-22T16:28:17.152Z,20.80
2022-10-22T16:30:45.057Z,20.80
2022-10-22T16:33:12.920Z,20.50
2022-10-22T16:35:42.895Z,20.70
2022-10-22T16:38:10.927Z,20.50
2022-10-22T16:40:38.888Z,20.30
2022-10-22T16:43:06.796Z,20.40
2022-10-22T16:45:34.668Z,19.70
2022-10-22T16:48:02.509Z,19.80
2022-10-22T16:50:30.371Z,19.70
2022-10-22T16:52:59.609Z,19.40
2022-10-22T16:55:27.500Z,19.30
2022-10-22T16:57:55.378Z,19.30
2022-10-22T17:00:23.264Z,19.40
2022-10-22T17:02:54.192Z,19.40
2022-10-22T17:05:22.245Z,19.30
2022-10-22T17:07:50.127Z,19.30
2022-10-22T17:10:19.783Z,19.10
2022-10-22T17:12:47.725Z,19.00
2022-10-22T17:15:15.825Z,19.10
2022-10-22T17:17:43.775Z,18.90
2022-10-22T17:20:12.494Z,18.60
2022-10-22T17:22:40.709Z,18.30
2022-10-22T17:25:10.643Z,18.20
2022-10-22T17:27:40.561Z,18.00
2022-10-22T17:30:09.430Z,18.00
2022-10-22T17:32:37.621Z,18.10
2022-10-22T17:35:05.837Z,18.20
2022-10-22T17:37:33.752Z,18.40
2022-10-22T17:40:02.387Z,18.50
2022-10-22T17:42:30.300Z,18.30
2022-10-22T17:44:59.599Z,18.50
2022-10-22T17:47:27.479Z,18.30
2022-10-22T17:49:55.340Z,18.40
2022-10-22T17:52:23.237Z,18.40
2022-10-22T17:54:51.603Z,18.00
2022-10-22T17:57:19.547Z,17.80
2022-10-22T17:59:47.409Z,17.70
2022-10-22T18:02:17.116Z,17.70
2022-10-22T18:04:45.359Z,17.90
2022-10-22T18:07:13.529Z,17.90
2022-10-22T18:09:42.903Z,17.80
2022-10-22T18:12:12.855Z,17.80
2022-10-22T18:14:41.114Z,17.80
2022-10-22T18:17:09.235Z,17.90
2022-10-22T18:19:38.541Z,17.70
2022-10-22T18:22:07.907Z,17.40
2022-10-22T18:24:35.999Z,17.50
2022-10-22T18:27:04.090Z,17.30
2022-10-22T18:29:31.945Z,17.50
2022-10-22T18:31:59.859Z,17.20
2022-10-22T18:34:27.728Z,17.40
2022-10-22T18:36:56.992Z,17.60
2022-10-22T18:39:24.896Z,17.40
2022-10-22T18:41:52.773Z,17.50
2022-10-22T18:44:20.630Z,17.30
2022-10-22T18:46:48.546Z,17.30
2022-10-22T18:49:18.250Z,17.20
2022-10-22T18:51:46.520Z,16.80
2022-10-22T18:54:23.103Z,16.60
2022-10-22T18:56:52.010Z,16.80
2022-10-22T18:59:20.439Z,16.90
2022-10-22T19:01:48.352Z,16.80
2022-10-22T19:04:16.234Z,16.80
2022-10-22T19:06:45.813Z,17.00
2022-10-22T19:09:15.630Z,16.80
2022-10-22T19:11:43.744Z,16.80
2022-10-22T19:14:11.609Z,17.10
2022-10-22T19:16:39.485Z,17.20
2022-10-22T19:19:07.584Z,17.10
2022-10-22T19:21:35.526Z,17.00
2022-10-22T19:24:03.450Z,16.90
2022-10-22T19:26:32.688Z,16.80
2022-10-22T19:29:00.670Z,16.70
2022-10-22T19:31:29.890Z,16.80
2022-10-22T19:33:57.776Z,16.80
2022-10-22T19:36:27.616Z,16.70
2022-10-22T19:38:55.559Z,16.80
2022-10-22T19:41:23.790Z,16.60
2022-10-22T19:43:53.700Z,16.50
2022-10-22T19:46:22.213Z,16.20
2022-10-22T19:48:51.465Z,16.40
2022-10-22T19:51:19.859Z,16.70
2022-10-22T19:53:47.825Z,16.40
2022-10-22T19:56:18.005Z,16.30
2022-10-22T19:58:45.901Z,16.40
2022-10-22T20:01:15.907Z,16.50
2022-10-22T20:03:43.836Z,16.70
2022-10-22T20:06:12.326Z,16.30
2022-10-22T20:08:40.269Z,16.50
2022-10-22T20:11:09.389Z,16.60
2022-10-22T20:13:37.295Z,16.50
2022-10-22T20:16:05.747Z,16.70
2022-10-22T20:18:35.512Z,16.50
2022-10-22T20:21:05.131Z,16.60
2022-10-22T20:23:33.521Z,16.50
2022-10-22T20:26:01.452Z,16.50
2022-10-22T20:28:29.335Z,16.50
2022-10-22T20:30:57.537Z,16.60
2022-10-22T20:33:26.160Z,16.70
2022-10-22T20:36:02.221Z,16.50
2022-10-22T20:38:31.061Z,16.40
2022-10-22T20:41:03.082Z,16.30
2022-10-22T20:43:31.865Z,16.40
2022-10-22T20:46:00.694Z,16.60
2022-10-22T20:48:31.283Z,16.60
2022-10-22T20:51:00.528Z,16.80
2022-10-22T20:53:31.124Z,16.50
2022-10-22T20:55:59.892Z,16.70
2022-10-22T20:58:31.059Z,16.80
2022-10-22T21:00:59.407Z,16.40
2022-10-22T21:03:28.051Z,16.60
2022-10-22T21:05:56.362Z,16.90
2022-10-22T21:08:25.175Z,16.90
2022-10-22T21:10:58.953Z,17.00
2022-10-22T21:13:27.561Z,17.20
2022-10-22T21:15:55.692Z,17.20
2022-10-22T21:18:23.834Z,16.80
2022-10-22T21:20:52.449Z,16.70
2022-10-22T21:23:20.861Z,16.80
2022-10-22T21:25:55.891Z,16.80
2022-10-22T21:28:24.361Z,17.00
2022-10-22T21:30:53.320Z,16.80
2022-10-22T21:33:21.846Z,16.90
2022-10-22T21:35:50.859Z,16.60
2022-10-22T21:38:19.821Z,16.60
2022-10-22T21:40:48.488Z,17.00
2022-10-22T21:43:17.787Z,16.80
2022-10-22T21:45:45.687Z,16.80
2022-10-22T21:48:13.708Z,16.60
2022-10-22T21:50:41.807Z,16.60
2022-10-22T21:53:09.741Z,16.50
2022-10-22T21:55:40.647Z,16.80
2022-10-22T21:58:08.565Z,16.90
2022-10-22T22:00:37.828Z,16.70
2022-10-22T22:03:07.287Z,16.90
2022-10-22T22:05:35.198Z,16.50
2022-10-22T22:08:03.021Z,16.40
2022-10-22T22:10:31.090Z,16.70
2022-10-22T22:12:58.986Z,16.80
2022-10-22T22:15:26.929Z,17.00
2022-10-22T22:17:56.124Z,16.60
2022-10-22T22:20:23.999Z,16.50
2022-10-22T22:22:51.833Z,16.90
2022-10-22T22:25:19.667Z,17.10
2022-10-22T22:27:47.559Z,17.10
2022-10-22T22:30:15.427Z,17.10
2022-10-22T22:32:43.294Z,17.00
2022-10-22T22:35:12.542Z,16.90
2022-10-22T22:37:40.632Z,16.40
2022-10-22T22:40:09.116Z,16.60
2022-10-22T22:42:36.978Z,16.90
2022-10-22T22:45:05.111Z,17.00
2022-10-22T22:47:33.003Z,16.90
2022-10-22T22:50:00.831Z,16.80
2022-10-22T22:52:30.091Z,16.80
2022-10-22T22:54:57.934Z,16.90
2022-10-22T22:57:25.885Z,17.00
2022-10-22T22:59:53.748Z,16.40
2022-10-22T23:02:21.636Z,16.70
2022-10-22T23:04:49.486Z,17.00
2022-10-22T23:07:17.344Z,16.60
2022-10-22T23:09:46.735Z,16.70
2022-10-22T23:12:14.628Z,16.60
2022-10-22T23:14:42.481Z,16.40
2022-10-22T23:17:10.516Z,16.50
2022-10-22T23:19:38.368Z,16.20
2022-10-22T23:22:06.252Z,16.20
2022-10-22T23:24:34.185Z,16.10
2022-10-22T23:27:03.970Z,16.50
2022-10-22T23:29:32.194Z,16.30
2022-10-22T23:32:00.337Z,16.30
2022-10-22T23:34:28.258Z,16.40
2022-10-22T23:36:56.139Z,16.50
2022-10-22T23:39:24.413Z,16.60
2022-10-22T23:41:53.118Z,16.70
2022-10-22T23:44:22.386Z,16.70
2022-10-22T23:46:50.956Z,16.70
2022-10-22T23:49:18.805Z,16.80
2022-10-22T23:51:46.704Z,16.80
2022-10-22T23:54:14.817Z,16.80
2022-10-22T23:56:42.693Z,16.80
2022-10-22T23:59:10.590Z,16.80
